Time;durP1;ratioP1;P1;durP2;ratioP2;P2;SDS_P1;SDS_P2;PMS_P1;PMS_P2;Temp;Humidity;BMP_temperature;BMP_pressure;BME280_temperature;BME280_humidity;BME280_pressure;Samples;Min_cycle;Max_cycle;Signal;HPM_P1;HPM_P2
2023/04/23 00:02:12;;;;;;;92.40;40.40;;;;;;;-146.27;100.00;83887.06;5095925;28;20036;-66
2023/04/23 00:04:38;;;;;;;88.63;41.28;;;;;;;-146.27;100.00;83915.19;5090460;28;20457;-65
2023/04/23 00:07:04;;;;;;;79.55;39.20;;;;;;;-146.27;100.00;83913.19;5080397;28;20372;-66
2023/04/23 00:09:31;;;;;;;85.95;40.03;;;;;;;-146.27;100.00;83907.16;5093282;28;20028;-65
2023/04/23 00:11:57;;;;;;;86.03;39.88;;;;;;;-146.27;100.00;83891.06;5091876;28;20460;-67
2023/04/23 00:14:22;;;;;;;88.38;42.65;;;;;;;-146.27;100.00;83899.09;5095946;28;20055;-66
2023/04/23 00:16:48;;;;;;;83.55;40.55;;;;;;;-146.27;100.00;83943.31;5093344;28;20070;-66
2023/04/23 00:19:13;;;;;;;90.43;43.65;;;;;;;-146.27;100.00;83955.38;5084221;28;20503;-65
2023/04/23 00:21:39;;;;;;;91.80;41.90;;;;;;;-146.27;100.00;83903.13;5093101;28;20327;-66
2023/04/23 00:24:04;;;;;;;88.65;42.20;;;;;;;-146.27;100.00;83915.19;5087933;28;20027;-65
2023/04/23 00:26:30;;;;;;;81.05;39.58;;;;;;;-146.27;100.00;83931.25;5084251;28;20061;-64
2023/04/23 00:28:55;;;;;;;88.45;41.15;;;;;;;-146.27;100.00;83935.28;5093706;28;20028;-65
2023/04/23 00:31:21;;;;;;;89.15;42.28;;;;;;;-146.27;100.00;83935.28;5087670;28;20028;-65
2023/04/23 00:33:47;;;;;;;87.93;40.65;;;;;;;-146.27;100.00;83915.19;5093756;28;20122;-65
2023/04/23 00:36:12;;;;;;;97.63;43.60;;;;;;;-146.27;100.00;83907.16;5090789;28;20103;-65
2023/04/23 00:38:37;;;;;;;91.45;43.60;;;;;;;-146.27;100.00;83909.16;5095163;28;20419;-66
2023/04/23 00:41:03;;;;;;;95.57;43.15;;;;;;;-146.27;100.00;83923.22;5093110;28;20059;-66
2023/04/23 00:43:29;;;;;;;94.32;42.03;;;;;;;-146.27;100.00;83905.13;5091543;28;20031;-65
2023/04/23 00:45:55;;;;;;;83.47;41.55;;;;;;;-146.27;100.00;83935.28;5090060;28;20032;-66
2023/04/23 00:48:21;;;;;;;95.43;41.40;;;;;;;-146.27;100.00;83933.28;5087091;28;20054;-66
2023/04/23 00:50:46;;;;;;;92.13;43.20;;;;;;;-146.27;100.00;83941.31;5091365;28;20484;-66
2023/04/23 00:53:11;;;;;;;93.03;42.78;;;;;;;-146.27;100.00;83919.19;5093194;28;20054;-66
2023/04/23 00:55:37;;;;;;;91.03;43.88;;;;;;;-146.27;100.00;83943.31;5084782;28;20376;-66
2023/04/23 00:58:02;;;;;;;90.75;43.03;;;;;;;-146.27;100.00;83963.41;5081929;28;20028;-64
2023/04/23 01:00:28;;;;;;;89.85;42.80;;;;;;;-146.27;100.00;84013.66;5086388;28;20024;-66
2023/04/23 01:02:54;;;;;;;94.47;43.40;;;;;;;-146.27;100.00;83919.19;5081214;28;20391;-66
2023/04/23 01:05:22;;;;;;;88.43;42.60;;;;;;;-146.27;100.00;83955.38;5086958;28;20517;-65
2023/04/23 01:07:47;;;;;;;87.25;41.55;;;;;;;-146.27;100.00;83939.31;5091875;28;20048;-66
2023/04/23 01:10:13;;;;;;;91.75;41.83;;;;;;;-146.27;100.00;83943.31;5094582;28;20039;-66
2023/04/23 01:12:39;;;;;;;86.22;40.15;;;;;;;-146.27;100.00;83919.19;5091997;28;20020;-65
2023/04/23 01:15:06;;;;;;;89.10;41.65;;;;;;;-146.27;100.00;83957.38;5089921;28;20079;-66
2023/04/23 01:17:33;;;;;;;96.85;42.72;;;;;;;-146.27;100.00;83943.31;5089631;28;20099;-66
2023/04/23 01:19:58;;;;;;;91.53;41.90;;;;;;;-146.27;100.00;83979.50;5091211;28;20023;-66
2023/04/23 01:22:24;;;;;;;92.05;42.40;;;;;;;-146.27;100.00;83951.34;5085532;28;20467;-66
2023/04/23 01:24:50;;;;;;;92.60;42.17;;;;;;;-146.27;100.00;83911.16;5092051;28;20028;-66
2023/04/23 01:27:18;;;;;;;93.55;43.53;;;;;;;-146.27;100.00;83967.44;5094458;28;20099;-65
2023/04/23 01:29:43;;;;;;;88.50;41.83;;;;;;;-146.27;100.00;83981.50;5085278;28;20422;-66
2023/04/23 01:32:09;;;;;;;88.15;42.50;;;;;;;-146.27;100.00;83955.38;5091559;28;20030;-65
2023/04/23 01:34:35;;;;;;;98.15;42.42;;;;;;;-146.27;100.00;83955.38;5090500;28;20039;-66
2023/04/23 01:37:02;;;;;;;99.55;44.13;;;;;;;-146.27;100.00;83947.34;5093791;28;20027;-65
2023/04/23 01:39:27;;;;;;;89.57;41.55;;;;;;;-146.27;100.00;83931.25;5085268;28;20023;-66
2023/04/23 01:41:53;;;;;;;89.05;41.80;;;;;;;-146.27;100.00;83921.22;5093379;28;20042;-65
2023/04/23 01:44:18;;;;;;;82.93;41.92;;;;;;;-146.27;100.00;83925.22;5092467;28;20027;-64
2023/04/23 01:46:43;;;;;;;92.72;42.95;;;;;;;-146.27;100.00;83945.31;5093563;28;20039;-66
2023/04/23 01:49:09;;;;;;;87.65;42.67;;;;;;;-146.27;100.00;83915.19;5085877;28;20036;-65
2023/04/23 01:51:35;;;;;;;90.43;41.33;;;;;;;-146.27;100.00;83891.06;5088900;28;20397;-66
2023/04/23 01:54:00;;;;;;;89.25;41.10;;;;;;;-146.27;100.00;83935.28;5093259;28;20177;-66
2023/04/23 01:56:27;;;;;;;81.40;40.58;;;;;;;-146.27;100.00;83905.13;5093952;28;20016;-65
2023/04/23 01:58:52;;;;;;;87.15;43.10;;;;;;;-146.27;100.00;83947.34;5090449;28;20043;-65
2023/04/23 02:01:18;;;;;;;86.05;41.70;;;;;;;-146.27;100.00;83927.25;5091496;28;20028;-66
2023/04/23 02:03:44;;;;;;;84.75;40.63;;;;;;;-146.27;100.00;83953.38;5091570;28;20024;-65
2023/04/23 02:06:10;;;;;;;92.40;42.17;;;;;;;-146.27;100.00;83931.25;5081939;28;20440;-65
2023/04/23 02:08:36;;;;;;;86.38;39.80;;;;;;;-146.27;100.00;83895.09;5092248;28;20127;-65
2023/04/23 02:11:02;;;;;;;83.05;40.92;;;;;;;-146.27;100.00;83933.28;5091542;28;20067;-65
2023/04/23 02:13:27;;;;;;;79.45;38.78;;;;;;;-146.27;100.00;83899.09;5088558;28;20095;-65
2023/04/23 02:15:53;;;;;;;86.70;40.42;;;;;;;-146.27;100.00;83895.09;5092685;28;20038;-65
2023/04/23 02:18:18;;;;;;;79.28;38.75;;;;;;;-146.27;100.00;83915.19;5090393;28;20031;-65
2023/04/23 02:20:44;;;;;;;75.28;38.17;;;;;;;-146.27;100.00;83919.19;5090701;28;20031;-65
2023/04/23 02:23:09;;;;;;;84.68;39.15;;;;;;;-146.27;100.00;83850.88;5089024;28;20057;-65
2023/04/23 02:25:37;;;;;;;74.95;37.85;;;;;;;-146.27;100.00;83903.13;5083564;28;20028;-65
2023/04/23 02:28:05;;;;;;;74.10;37.53;;;;;;;-146.27;100.00;83901.13;5089021;28;20024;-66
2023/04/23 02:30:30;;;;;;;81.85;37.90;;;;;;;-146.27;100.00;83905.13;5091467;28;20024;-66
2023/04/23 02:32:56;;;;;;;75.07;34.90;;;;;;;-146.27;100.00;83901.13;5089107;28;20079;-65
2023/04/23 02:35:22;;;;;;;73.57;34.83;;;;;;;-146.27;100.00;83903.13;5092501;28;20031;-65
2023/04/23 02:37:48;;;;;;;65.45;35.47;;;;;;;-146.27;100.00;83866.97;5090221;28;20027;-66
2023/04/23 02:40:13;;;;;;;70.88;36.40;;;;;;;-146.27;100.00;83852.88;5092931;28;20032;-65
2023/04/23 02:42:38;;;;;;;69.05;34.33;;;;;;;-146.27;100.00;83870.97;5091279;28;20020;-65
2023/04/23 02:45:04;;;;;;;69.72;34.60;;;;;;;-146.27;100.00;83895.09;5093125;28;20106;-65
2023/04/23 02:47:30;;;;;;;60.97;31.67;;;;;;;-146.27;100.00;83883.03;5089286;28;20180;-65
2023/04/23 02:49:56;;;;;;;61.17;31.75;;;;;;;-146.27;100.00;83883.03;5080445;28;20078;-65
2023/04/23 02:52:21;;;;;;;60.75;30.55;;;;;;;-146.27;100.00;83850.88;5088592;28;20024;-66
2023/04/23 02:54:47;;;;;;;52.65;28.80;;;;;;;-146.27;100.00;83860.94;5086765;28;20028;-65
2023/04/23 02:57:14;;;;;;;53.63;28.50;;;;;;;-146.27;100.00;83875.00;5083374;28;20028;-65
2023/04/23 02:59:39;;;;;;;54.53;29.15;;;;;;;-146.27;100.00;83866.97;5082179;28;20032;-65
2023/04/23 03:02:05;;;;;;;47.75;27.10;;;;;;;-146.27;100.00;83879.00;5084158;28;20028;-65
2023/04/23 03:04:30;;;;;;;53.03;27.48;;;;;;;-146.27;100.00;83891.06;5089303;28;20030;-64
2023/04/23 03:06:56;;;;;;;47.42;26.80;;;;;;;-146.27;100.00;83870.97;5088377;28;20024;-67
2023/04/23 03:09:21;;;;;;;50.78;28.17;;;;;;;-146.27;100.00;83858.91;5091329;28;20687;-66
2023/04/23 03:11:46;;;;;;;49.58;27.92;;;;;;;-146.27;100.00;83866.97;5086139;28;20024;-66
2023/04/23 03:14:12;;;;;;;46.63;26.20;;;;;;;-146.27;100.00;83927.25;5090064;28;20107;-65
2023/04/23 03:16:37;;;;;;;47.58;27.48;;;;;;;-146.27;100.00;83875.00;5074914;28;20472;-65
2023/04/23 03:19:03;;;;;;;53.47;28.70;;;;;;;-146.27;100.00;83866.97;5090577;28;20483;-65
2023/04/23 03:21:28;;;;;;;50.05;28.38;;;;;;;-146.27;100.00;83846.84;5091105;28;20475;-67
2023/04/23 03:23:53;;;;;;;48.33;26.63;;;;;;;-146.27;100.00;83872.97;5089753;28;20035;-66
2023/04/23 03:26:19;;;;;;;49.70;27.77;;;;;;;-146.27;100.00;83846.84;5091113;28;20024;-66
2023/04/23 03:28:44;;;;;;;43.83;25.40;;;;;;;-146.27;100.00;83826.75;5089994;28;22130;-65
2023/04/23 03:31:10;;;;;;;47.42;26.38;;;;;;;-146.27;100.00;83830.78;5086322;28;20086;-66
2023/04/23 03:33:35;;;;;;;46.80;26.20;;;;;;;-146.27;100.00;83836.81;5086308;28;20482;-66
2023/04/23 03:36:01;;;;;;;49.80;26.52;;;;;;;-146.27;100.00;83852.88;5090369;28;20077;-65
2023/04/23 03:38:26;;;;;;;50.72;25.30;;;;;;;-146.27;100.00;83826.75;5088911;28;20036;-66
2023/04/23 03:40:52;;;;;;;42.70;25.45;;;;;;;-146.27;100.00;83826.75;5092217;28;20055;-66
2023/04/23 03:43:17;;;;;;;42.85;25.50;;;;;;;-146.27;100.00;83842.84;5090315;28;20479;-64
2023/04/23 03:45:42;;;;;;;45.75;26.80;;;;;;;-146.27;100.00;83879.00;5090584;28;20092;-65
2023/04/23 03:48:07;;;;;;;44.63;25.85;;;;;;;-146.27;100.00;83802.66;5078793;28;20021;-65
2023/04/23 03:50:37;;;;;;;43.85;26.45;;;;;;;-146.27;100.00;83768.50;5087937;28;20044;-64
2023/04/23 03:53:03;;;;;;;47.92;28.27;;;;;;;-146.27;100.00;83810.69;5084155;28;20043;-64
2023/04/23 03:55:28;;;;;;;46.72;26.98;;;;;;;-146.27;100.00;83846.84;5089070;28;20032;-65
2023/04/23 03:57:54;;;;;;;49.70;27.30;;;;;;;-146.27;100.00;83828.78;5090307;28;20371;-65
2023/04/23 04:00:20;;;;;;;47.50;28.02;;;;;;;-146.27;100.00;83798.63;5091740;28;20153;-64
2023/04/23 04:02:45;;;;;;;44.20;26.35;;;;;;;-146.27;100.00;83806.66;5085367;28;20430;-65
2023/04/23 04:05:11;;;;;;;43.45;24.60;;;;;;;-146.27;100.00;83816.72;5088322;28;20426;-64
2023/04/23 04:07:36;;;;;;;39.88;25.67;;;;;;;-146.27;100.00;83816.72;5074600;28;20550;-64
2023/04/23 04:10:03;;;;;;;44.10;26.17;;;;;;;-146.27;100.00;83858.91;5071708;28;20025;-64
2023/04/23 04:12:29;;;;;;;43.25;24.73;;;;;;;-146.27;100.00;83816.72;5079445;28;20315;-65
2023/04/23 04:14:54;;;;;;;44.97;26.38;;;;;;;-146.27;100.00;83756.44;5091386;28;20024;-65
2023/04/23 04:17:20;;;;;;;42.00;24.92;;;;;;;-146.27;100.00;83842.84;5077181;28;20024;-64
2023/04/23 04:19:45;;;;;;;41.72;25.67;;;;;;;-146.27;100.00;83810.69;5086717;28;20698;-65
2023/04/23 04:22:11;;;;;;;42.92;25.00;;;;;;;-146.27;100.00;83818.72;5089195;28;20181;-65
2023/04/23 04:24:36;;;;;;;44.30;25.00;;;;;;;-146.27;100.00;83798.63;5086208;28;20094;-65
2023/04/23 04:27:02;;;;;;;39.35;23.58;;;;;;;-146.27;100.00;83818.72;5084240;28;20039;-65
2023/04/23 04:29:27;;;;;;;41.42;24.48;;;;;;;-146.27;100.00;83798.63;5091379;28;20450;-64
2023/04/23 04:31:53;;;;;;;42.08;24.67;;;;;;;-146.27;100.00;83824.75;5088009;28;20039;-64
2023/04/23 04:34:19;;;;;;;47.80;25.52;;;;;;;-146.27;100.00;83806.66;5088649;28;20050;-65
2023/04/23 04:36:46;;;;;;;41.83;25.35;;;;;;;-146.27;100.00;83806.66;5088065;28;20115;-65
2023/04/23 04:39:13;;;;;;;38.38;24.10;;;;;;;-146.27;100.00;83830.78;5081862;28;20082;-64
2023/04/23 04:41:39;;;;;;;42.38;25.90;;;;;;;-146.27;100.00;83828.78;5083989;28;20024;-65
2023/04/23 04:44:07;;;;;;;41.67;25.00;;;;;;;-146.27;100.00;83740.34;5087400;28;20056;-65
2023/04/23 04:46:33;;;;;;;51.35;26.02;;;;;;;-146.27;100.00;83750.41;5090459;28;20028;-66
2023/04/23 04:48:59;;;;;;;45.30;26.17;;;;;;;-146.27;100.00;83726.28;5085241;28;20034;-65
2023/04/23 04:51:25;;;;;;;44.30;26.13;;;;;;;-146.27;100.00;83822.75;5087095;28;20243;-65
2023/04/23 04:53:51;;;;;;;45.80;27.50;;;;;;;-146.27;100.00;83800.63;5079979;28;20379;-65
2023/04/23 04:56:17;;;;;;;54.58;27.58;;;;;;;-146.27;100.00;83814.72;5082010;28;20107;-65
2023/04/23 04:58:42;;;;;;;46.00;26.33;;;;;;;-146.27;100.00;83814.72;5080587;28;20099;-64
2023/04/23 05:01:08;;;;;;;39.10;26.35;;;;;;;-146.27;100.00;83782.56;5082784;28;20032;-65
2023/04/23 05:03:33;;;;;;;40.60;25.40;;;;;;;-146.27;100.00;83814.72;5084933;28;20020;-64
2023/04/23 05:05:59;;;;;;;41.00;24.75;;;;;;;-146.27;100.00;83814.72;5080279;28;20435;-65
2023/04/23 05:08:24;;;;;;;41.25;23.45;;;;;;;-146.27;100.00;83818.72;5082011;28;20437;-65
2023/04/23 05:10:50;;;;;;;45.13;24.13;;;;;;;-146.27;100.00;83830.78;5090950;28;20028;-65
2023/04/23 05:13:16;;;;;;;44.30;24.45;;;;;;;-146.27;100.00;83794.63;5084131;28;20024;-64
2023/04/23 05:15:42;;;;;;;39.47;24.15;;;;;;;-146.27;100.00;83794.63;5090872;28;20032;-65
2023/04/23 05:18:09;;;;;;;39.63;23.40;;;;;;;-146.27;100.00;83782.56;5089716;28;20024;-64
2023/04/23 05:20:35;;;;;;;35.75;22.65;;;;;;;-146.27;100.00;83806.66;5091870;28;20113;-65
2023/04/23 05:23:01;;;;;;;38.25;22.52;;;;;;;-146.27;100.00;83774.53;5094474;28;20025;-64
2023/04/23 05:25:28;;;;;;;42.60;23.98;;;;;;;-146.27;100.00;83806.66;5093579;28;20020;-64
2023/04/23 05:27:53;;;;;;;36.85;22.98;;;;;;;-146.27;100.00;83780.53;5092090;28;20077;-65
2023/04/23 05:30:18;;;;;;;37.95;23.42;;;;;;;-146.27;100.00;83814.72;5090930;28;20023;-64
2023/04/23 05:32:44;;;;;;;42.25;24.63;;;;;;;-146.27;100.00;83810.69;5092505;28;20395;-64
2023/04/23 05:35:09;;;;;;;38.20;22.35;;;;;;;-146.27;100.00;83810.69;5094213;28;20035;-64
2023/04/23 05:37:35;;;;;;;38.72;23.92;;;;;;;-146.27;100.00;83838.81;5089989;28;20032;-64
2023/04/23 05:40:01;;;;;;;39.10;22.77;;;;;;;-146.27;100.00;83812.69;5079704;28;20466;-63
2023/04/23 05:42:27;;;;;;;37.72;22.48;;;;;;;-146.27;100.00;83764.47;5092975;28;20077;-65
2023/04/23 05:44:52;;;;;;;36.35;22.00;;;;;;;-146.27;100.00;83814.72;5092572;28;20032;-64
2023/04/23 05:47:17;;;;;;;38.58;22.23;;;;;;;-146.27;100.00;83790.59;5089965;28;20020;-65
2023/04/23 05:49:43;;;;;;;37.83;22.25;;;;;;;-146.27;100.00;83770.50;5081095;28;20067;-66
2023/04/23 05:52:08;;;;;;;36.88;21.00;;;;;;;-146.27;100.00;83764.47;5086309;28;20051;-69
2023/04/23 05:54:33;;;;;;;34.95;21.52;;;;;;;-146.27;100.00;83706.19;5082192;28;20024;-69
2023/04/23 05:56:59;;;;;;;35.08;21.27;;;;;;;-146.27;100.00;83814.72;5092592;28;20028;-68
2023/04/23 05:59:25;;;;;;;35.60;21.83;;;;;;;-146.27;100.00;83778.53;5093075;28;20036;-69
2023/04/23 06:01:50;;;;;;;36.42;20.85;;;;;;;-146.27;100.00;83726.28;5091710;28;20052;-66
2023/04/23 06:04:16;;;;;;;33.63;20.83;;;;;;;-146.27;100.00;83718.25;5084070;28;20024;-66
2023/04/23 06:06:42;;;;;;;34.08;20.63;;;;;;;-146.27;100.00;83722.28;5091065;28;20027;-67
2023/04/23 06:09:07;;;;;;;35.03;21.02;;;;;;;-146.27;100.00;83682.09;5087046;28;20055;-66
2023/04/23 06:11:34;;;;;;;34.67;20.58;;;;;;;-146.27;100.00;83766.47;5085482;28;20019;-67
2023/04/23 06:14:00;;;;;;;28.77;19.70;;;;;;;-146.27;100.00;83702.19;5088741;28;20445;-67
2023/04/23 06:16:25;;;;;;;33.88;19.80;;;;;;;-146.27;100.00;83668.00;5090505;28;20107;-66
2023/04/23 06:18:51;;;;;;;32.28;19.70;;;;;;;-146.27;100.00;83704.19;5083043;28;20137;-66
2023/04/23 06:21:16;;;;;;;29.00;18.05;;;;;;;-146.27;100.00;83649.94;5086863;28;20456;-67
2023/04/23 06:23:41;;;;;;;30.13;17.65;;;;;;;-146.27;100.00;83670.03;5089830;28;20491;-66
2023/04/23 06:26:07;;;;;;;30.20;18.20;;;;;;;-146.27;100.00;83657.97;5087332;28;20035;-67
2023/04/23 06:28:32;;;;;;;27.02;16.88;;;;;;;-146.27;100.00;83619.78;5088663;28;20035;-66
2023/04/23 06:30:58;;;;;;;25.08;16.20;;;;;;;-146.27;100.00;83601.72;5083004;28;20031;-66
2023/04/23 06:33:23;;;;;;;24.02;15.30;;;;;;;-146.27;100.00;83585.63;5085742;28;20036;-65
2023/04/23 06:35:49;;;;;;;24.38;15.60;;;;;;;-146.27;100.00;83573.56;5090645;28;20030;-66
2023/04/23 06:38:14;;;;;;;25.67;14.45;;;;;;;-146.27;100.00;83571.56;5080489;28;20062;-68
2023/04/23 06:40:40;;;;;;;20.95;13.20;;;;;;;-146.27;100.00;83545.44;5088139;28;20051;-67
2023/04/23 06:43:06;;;;;;;24.60;11.85;;;;;;;-146.27;100.00;83533.38;5086736;28;20024;-67
2023/04/23 06:45:34;;;;;;;16.98;10.70;;;;;;;-146.27;100.00;83525.34;5091989;28;20153;-67
2023/04/23 06:47:59;;;;;;;15.88;10.32;;;;;;;-146.27;100.00;83481.16;5091229;28;20032;-66
2023/04/23 06:50:25;;;;;;;18.38;10.80;;;;;;;-146.27;100.00;83509.28;5089549;28;21524;-67
2023/04/23 06:52:51;;;;;;;21.92;10.98;;;;;;;-146.27;100.00;83505.25;5091516;28;20024;-68
2023/04/23 06:55:17;;;;;;;22.10;10.43;;;;;;;-146.27;100.00;83424.88;5092320;28;20028;-67
2023/04/23 06:57:42;;;;;;;19.00;10.73;;;;;;;-146.27;100.00;83432.91;5085301;28;20028;-68
2023/04/23 07:00:09;;;;;;;27.13;10.30;;;;;;;-146.27;100.00;83438.94;5091035;28;20102;-67
2023/04/23 07:02:35;;;;;;;18.95;10.45;;;;;;;-146.27;100.00;83436.94;5089542;28;20098;-67
2023/04/23 07:05:01;;;;;;;20.20;9.93;;;;;;;-146.27;100.00;83366.59;5091956;28;20035;-67
2023/04/23 07:07:26;;;;;;;19.38;10.27;;;;;;;-146.27;100.00;83404.78;5084354;28;20134;-67
2023/04/23 07:09:52;;;;;;;18.88;9.57;;;;;;;-146.27;100.00;83416.84;5083189;28;20472;-67
2023/04/23 07:12:17;;;;;;;17.95;9.10;;;;;;;-146.27;100.00;83386.69;5080112;28;20217;-66
2023/04/23 07:14:42;;;;;;;17.05;9.40;;;;;;;-146.27;100.00;83396.75;5075072;28;20447;-67
2023/04/23 07:17:09;;;;;;;20.20;9.40;;;;;;;-146.27;100.00;83410.81;5087553;28;20467;-67
2023/04/23 07:19:35;;;;;;;17.10;9.73;;;;;;;-146.27;100.00;83372.63;5090272;28;20500;-67
2023/04/23 07:22:00;;;;;;;16.67;10.75;;;;;;;-146.27;100.00;83372.63;5081541;28;20024;-69
2023/04/23 07:24:26;;;;;;;17.23;9.60;;;;;;;-146.27;100.00;83384.69;5087138;28;20035;-68
2023/04/23 07:26:51;;;;;;;16.88;9.27;;;;;;;-146.27;100.00;83368.63;5091198;28;20387;-68
2023/04/23 07:29:17;;;;;;;21.58;9.60;;;;;;;-146.27;100.00;83344.50;5075870;28;20398;-67
2023/04/23 07:31:42;;;;;;;12.55;9.40;;;;;;;-146.27;100.00;83336.47;5089174;28;20454;-67
2023/04/23 07:34:08;;;;;;;14.18;9.40;;;;;;;-146.27;100.00;83330.44;5087012;28;20090;-67
2023/04/23 07:36:34;;;;;;;18.30;8.93;;;;;;;-146.27;100.00;83310.34;5089153;28;20028;-66
2023/04/23 07:38:59;;;;;;;19.35;9.68;;;;;;;-146.27;100.00;83296.28;5090509;28;20031;-67
2023/04/23 07:41:25;;;;;;;18.73;9.02;;;;;;;-146.27;100.00;83300.31;5087069;28;20031;-67
2023/04/23 07:43:50;;;;;;;16.20;7.85;;;;;;;-146.27;100.00;83262.13;5084312;28;20402;-66
2023/04/23 07:46:16;;;;;;;13.25;8.52;;;;;;;-146.27;100.00;83238.03;5083086;28;20028;-67
2023/04/23 07:48:41;;;;;;;10.38;7.53;;;;;;;-146.27;100.00;83187.78;5083752;28;20060;-67
2023/04/23 07:51:07;;;;;;;10.85;6.85;;;;;;;-146.27;100.00;83187.78;5082106;28;20023;-68
2023/04/23 07:53:33;;;;;;;13.82;7.45;;;;;;;-146.27;99.87;83248.06;5085755;28;20020;-68
2023/04/23 07:55:59;;;;;;;13.63;7.10;;;;;;;-146.27;100.00;83215.91;5084830;28;20035;-68
2023/04/23 07:58:24;;;;;;;18.75;7.40;;;;;;;-146.27;100.00;83211.91;5084729;28;20392;-68
2023/04/23 08:00:50;;;;;;;14.80;7.45;;;;;;;-146.27;99.83;83219.94;5088733;28;20039;-67
2023/04/23 08:03:15;;;;;;;12.10;6.38;;;;;;;-146.27;100.00;83209.88;5084534;28;20020;-68
2023/04/23 08:05:41;;;;;;;13.25;6.47;;;;;;;-146.27;100.00;83171.72;5084370;28;20243;-68
2023/04/23 08:08:07;;;;;;;12.27;7.40;;;;;;;-146.27;99.36;83131.53;5084516;28;20167;-68
2023/04/23 08:10:34;;;;;;;11.85;6.07;;;;;;;-146.27;97.99;83159.66;5087036;28;20042;-68
2023/04/23 08:12:59;;;;;;;14.48;6.97;;;;;;;-146.27;98.25;83151.63;5088470;28;20020;-67
2023/04/23 08:15:25;;;;;;;12.07;6.57;;;;;;;-146.27;98.12;83135.53;5088881;28;20031;-68
2023/04/23 08:17:50;;;;;;;11.48;5.75;;;;;;;-146.27;98.60;83109.44;5088858;28;20042;-67
2023/04/23 08:20:15;;;;;;;13.20;5.53;;;;;;;-146.27;96.85;83103.41;5081450;28;20030;-67
2023/04/23 08:22:41;;;;;;;11.73;5.43;;;;;;;-146.27;96.62;83053.16;5087127;28;20017;-68
2023/04/23 08:25:07;;;;;;;12.38;5.80;;;;;;;-146.27;95.67;83031.06;5090193;28;20481;-67
2023/04/23 08:27:33;;;;;;;9.15;5.70;;;;;;;-146.27;94.55;83047.16;5094470;28;20027;-67
2023/04/23 08:29:58;;;;;;;15.05;5.55;;;;;;;-146.27;95.63;83071.25;5090294;28;20471;-67
2023/04/23 08:32:23;;;;;;;11.23;5.60;;;;;;;-146.27;95.15;83031.06;5089313;28;20056;-67
2023/04/23 08:34:49;;;;;;;15.25;5.82;;;;;;;-146.27;93.45;83010.97;5091834;28;20024;-68
2023/04/23 08:37:14;;;;;;;12.18;6.25;;;;;;;-146.27;95.20;82944.69;5093276;28;20031;-67
2023/04/23 08:39:40;;;;;;;12.45;5.25;;;;;;;-146.27;92.59;82960.75;5090199;28;20037;-68
2023/04/23 08:42:30;;;;;;;18.55;5.10;;;;;;;-146.27;92.32;82972.81;5092636;28;20024;-64
2023/04/23 08:44:56;;;;;;;14.68;5.10;;;;;;;-146.27;92.26;82934.63;5093454;28;20420;-66
2023/04/23 08:47:24;;;;;;;9.93;4.30;;;;;;;-146.27;92.18;82892.44;5078187;28;20067;-63
2023/04/23 08:49:53;;;;;;;8.10;4.57;;;;;;;-146.27;91.66;82886.41;5087664;28;20023;-63
2023/04/23 08:52:22;;;;;;;9.32;4.30;;;;;;;-146.27;89.00;82878.38;5093956;28;20445;-65
2023/04/23 08:54:51;;;;;;;12.15;4.85;;;;;;;-146.27;88.16;82779.94;5083169;28;20039;-65
2023/04/23 08:57:17;;;;;;;15.82;4.55;;;;;;;-146.27;87.35;82860.31;5093433;28;20033;-64
2023/04/23 08:59:43;;;;;;;10.88;4.00;;;;;;;-146.27;87.39;82848.25;5089392;28;20467;-64
2023/04/23 09:02:09;;;;;;;9.95;4.15;;;;;;;-146.27;87.53;82834.19;5082409;28;20046;-63
2023/04/23 09:04:37;;;;;;;13.23;4.15;;;;;;;-146.27;87.35;82882.41;5092665;28;20463;-63
2023/04/23 09:07:03;;;;;;;16.15;4.97;;;;;;;-146.27;87.49;82862.31;5088517;28;20452;-63
2023/04/23 09:09:29;;;;;;;7.80;4.47;;;;;;;-146.27;87.08;82856.28;5079842;28;20028;-65
2023/04/23 09:11:56;;;;;;;13.15;4.63;;;;;;;-146.27;88.31;82834.19;5087537;28;20024;-64
2023/04/23 09:14:24;;;;;;;8.35;4.80;;;;;;;-146.27;87.51;82759.84;5083948;28;20028;-64
2023/04/23 09:16:50;;;;;;;13.40;4.97;;;;;;;-146.27;87.63;82747.78;5086736;28;20475;-64
2023/04/23 09:19:16;;;;;;;11.95;4.85;;;;;;;-146.27;85.85;82721.69;5083194;28;20085;-65
2023/04/23 09:21:43;;;;;;;12.32;4.13;;;;;;;-146.27;85.37;82695.56;5086345;28;20047;-65
2023/04/23 09:24:13;;;;;;;9.32;5.30;;;;;;;-146.27;83.17;82621.22;5082406;28;20032;-66
2023/04/23 09:26:47;;;;;;;11.30;3.25;;;;;;;-146.27;80.75;82625.25;5093704;28;20109;-65
2023/04/23 09:29:17;;;;;;;;;;;;;;;-146.27;80.56;82569.00;5092211;28;20036;-66
2023/04/23 09:31:46;;;;;;;9.75;3.50;;;;;;;-146.27;78.50;82560.97;5088422;28;19912;-65
2023/04/23 09:34:17;;;;;;;10.57;3.08;;;;;;;-146.27;78.52;82569.00;5084934;28;20024;-65
2023/04/23 09:36:44;;;;;;;7.82;2.90;;;;;;;-146.27;76.52;82585.06;5088722;28;20035;-65
2023/04/23 09:39:13;;;;;;;8.35;2.88;;;;;;;-146.27;76.41;82603.16;5092180;28;20035;-65
2023/04/23 09:41:38;;;;;;;10.45;3.35;;;;;;;-146.27;77.65;82579.03;5085291;28;20871;-65
2023/04/23 09:44:04;;;;;;;5.85;2.95;;;;;;;-146.27;78.44;82669.44;5085743;28;20490;-66
2023/04/23 09:46:36;;;;;;;5.80;2.85;;;;;;;-146.27;79.23;82621.22;5089383;28;20020;-67
2023/04/23 09:49:09;;;;;;;16.08;3.25;;;;;;;-146.27;78.87;82617.22;5090566;28;20119;-66
2023/04/23 09:51:35;;;;;;;9.40;2.65;;;;;;;-146.27;78.43;82659.41;5084856;28;20384;-67
2023/04/23 09:54:05;;;;;;;11.93;2.53;;;;;;;-146.27;77.68;82625.25;5091285;28;20500;-67
2023/04/23 09:56:31;;;;;;;12.05;4.03;;;;;;;-146.27;78.75;82581.06;5089977;28;20373;-67
2023/04/23 09:58:56;;;;;;;15.00;5.55;;;;;;;-146.27;78.04;82621.22;5090113;28;20028;-67
2023/04/23 10:01:28;;;;;;;11.32;4.35;;;;;;;-146.27;79.61;82573.00;5093322;28;20020;-68
2023/04/23 10:03:58;;;;;;;10.50;4.28;;;;;;;-146.27;79.48;82573.00;5091904;28;20445;-68
2023/04/23 10:06:28;;;;;;;11.70;3.83;;;;;;;-146.27;78.23;82663.41;5093446;28;20028;-68
2023/04/23 10:08:56;;;;;;;12.35;3.22;;;;;;;-146.27;80.33;82645.34;5092570;28;20105;-68
2023/04/23 10:11:23;;;;;;;10.23;3.60;;;;;;;-146.27;79.26;82560.97;5092033;28;20027;-68
2023/04/23 10:13:50;;;;;;;15.18;3.30;;;;;;;-146.27;76.69;82492.66;5093227;28;20024;-67
2023/04/23 10:16:17;;;;;;;11.35;3.30;;;;;;;-146.27;75.84;82488.66;5089755;28;20414;-67
2023/04/23 10:18:43;;;;;;;11.70;4.35;;;;;;;-146.27;73.89;82400.25;5085758;28;20388;-68
2023/04/23 10:21:10;;;;;;;17.45;3.95;;;;;;;-146.27;73.38;82426.38;5090090;28;20028;-67
2023/04/23 10:23:39;;;;;;;14.25;3.30;;;;;;;-146.27;72.19;82392.22;5090494;28;20035;-68
2023/04/23 10:26:08;;;;;;;13.43;3.05;;;;;;;-146.27;71.73;82368.13;5080881;28;20024;-67
2023/04/23 10:28:34;;;;;;;14.52;3.83;;;;;;;-146.27;69.93;82392.22;5091373;28;20157;-67
2023/04/23 10:31:02;;;;;;;9.57;3.33;;;;;;;-146.27;71.12;82452.47;5092113;28;20020;-68
2023/04/23 10:33:30;;;;;;;9.10;2.88;;;;;;;-146.27;69.06;82408.28;5089020;28;20111;-67
2023/04/23 10:35:56;;;;;;;10.88;3.00;;;;;;;-146.27;69.29;82404.28;5087017;28;20036;-69
2023/04/23 10:38:22;;;;;;;7.55;2.90;;;;;;;-146.27;69.81;82408.28;5092035;28;20026;-68
2023/04/23 10:40:52;;;;;;;13.90;2.88;;;;;;;-146.27;68.40;82420.34;5086153;28;20063;-67
2023/04/23 10:43:17;;;;;;;9.40;2.85;;;;;;;-146.27;68.48;82364.09;5088868;28;20023;-67
2023/04/23 10:45:43;;;;;;;13.57;3.17;;;;;;;-146.27;67.95;82378.16;5090494;28;20034;-66
2023/04/23 10:48:08;;;;;;;11.52;2.80;;;;;;;-146.27;67.94;82337.97;5091260;28;20034;-66
2023/04/23 10:50:35;;;;;;;11.40;2.95;;;;;;;-146.27;66.51;82323.91;5091816;28;20073;-68
2023/04/23 10:53:01;;;;;;;8.80;2.58;;;;;;;-146.27;65.29;82384.19;5091038;28;20051;-68
2023/04/23 10:55:28;;;;;;;6.18;2.05;;;;;;;-146.27;63.15;82450.47;5089566;28;20015;-68